<?xml version="1.0" encoding="UTF-8" standalone="no" ?>
<gpx xmlns="http://www.topografix.com/GPX/1/1" xmlns:xsi="http://www.w3.org/2001/XMLSchema-instance" xsi:schemaLocation="http://www.topografix.com/GPX/1/1 http://www.topografix.com/GPX/1/1/gpx.xsd" version="1.1" creator="VisuGPX - https://www.visugpx.com">
  <metadata>
    <name>Traces DPT 33</name>
    <desc><![CDATA[Total: 12.2km]]></desc>
  </metadata>
  <trk>
    <name><![CDATA[randogps33-933]]></name>
    <extensions>
      <line xmlns="http://www.topografix.com/GPX/gpx_style/0/2">
        <color>FF0000</color>
        <width>4</width>
      </line>
    </extensions>
    <trkseg>
      <trkpt lat="44.87556" lon="-0.13393">
        <ele>22</ele>
        <time>2020-06-26T05:55:52Z</time>
      </trkpt>
      <trkpt lat="44.87583" lon="-0.13454">
        <ele>23</ele>
        <time>2020-06-26T05:57:00Z</time>
      </trkpt>
      <trkpt lat="44.87594" lon="-0.13516">
        <ele>23</ele>
        <time>2020-06-26T05:58:00Z</time>
      </trkpt>
      <trkpt lat="44.87598" lon="-0.13542">
        <ele>23</ele>
        <time>2020-06-26T05:58:26Z</time>
      </trkpt>
      <trkpt lat="44.87594" lon="-0.13569">
        <ele>23</ele>
        <time>2020-06-26T05:58:52Z</time>
      </trkpt>
      <trkpt lat="44.87604" lon="-0.13631">
        <ele>23</ele>
        <time>2020-06-26T05:59:52Z</time>
      </trkpt>
      <trkpt lat="44.87618" lon="-0.13691">
        <ele>23</ele>
        <time>2020-06-26T06:00:52Z</time>
      </trkpt>
      <trkpt lat="44.87635" lon="-0.1375">
        <ele>21</ele>
        <time>2020-06-26T06:01:52Z</time>
      </trkpt>
      <trkpt lat="44.8767" lon="-0.13869">
        <ele>21</ele>
        <time>2020-06-26T06:03:54Z</time>
      </trkpt>
      <trkpt lat="44.87702" lon="-0.13897">
        <ele>21</ele>
        <time>2020-06-26T06:04:44Z</time>
      </trkpt>
      <trkpt lat="44.87745" lon="-0.13873">
        <ele>22</ele>
        <time>2020-06-26T06:05:46Z</time>
      </trkpt>
      <trkpt lat="44.87789" lon="-0.13859">
        <ele>23</ele>
        <time>2020-06-26T06:06:46Z</time>
      </trkpt>
      <trkpt lat="44.87835" lon="-0.1385">
        <ele>24</ele>
        <time>2020-06-26T06:07:48Z</time>
      </trkpt>
      <trkpt lat="44.87924" lon="-0.13827">
        <ele>29</ele>
        <time>2020-06-26T06:09:48Z</time>
      </trkpt>
      <trkpt lat="44.87968" lon="-0.13824">
        <ele>33</ele>
        <time>2020-06-26T06:10:47Z</time>
      </trkpt>
      <trkpt lat="44.87968" lon="-0.13786">
        <ele>32</ele>
        <time>2020-06-26T06:11:23Z</time>
      </trkpt>
      <trkpt lat="44.87964" lon="-0.13722">
        <ele>31</ele>
        <time>2020-06-26T06:12:24Z</time>
      </trkpt>
      <trkpt lat="44.87948" lon="-0.13586">
        <ele>29</ele>
        <time>2020-06-26T06:14:34Z</time>
      </trkpt>
      <trkpt lat="44.87942" lon="-0.1354">
        <ele>29</ele>
        <time>2020-06-26T06:15:19Z</time>
      </trkpt>
      <trkpt lat="44.87996" lon="-0.13527">
        <ele>32</ele>
        <time>2020-06-26T06:16:32Z</time>
      </trkpt>
      <trkpt lat="44.88033" lon="-0.13505">
        <ele>37</ele>
        <time>2020-06-26T06:17:25Z</time>
      </trkpt>
      <trkpt lat="44.88046" lon="-0.13444">
        <ele>37</ele>
        <time>2020-06-26T06:18:25Z</time>
      </trkpt>
      <trkpt lat="44.88056" lon="-0.13384">
        <ele>37</ele>
        <time>2020-06-26T06:19:24Z</time>
      </trkpt>
      <trkpt lat="44.88067" lon="-0.1332">
        <ele>38</ele>
        <time>2020-06-26T06:20:26Z</time>
      </trkpt>
      <trkpt lat="44.88108" lon="-0.13319">
        <ele>41</ele>
        <time>2020-06-26T06:21:21Z</time>
      </trkpt>
      <trkpt lat="44.88129" lon="-0.13315">
        <ele>44</ele>
        <time>2020-06-26T06:21:49Z</time>
      </trkpt>
      <trkpt lat="44.88165" lon="-0.13329">
        <ele>48</ele>
        <time>2020-06-26T06:22:39Z</time>
      </trkpt>
      <trkpt lat="44.88163" lon="-0.13347">
        <ele>49</ele>
        <time>2020-06-26T06:22:56Z</time>
      </trkpt>
      <trkpt lat="44.88145" lon="-0.13405">
        <ele>50</ele>
        <time>2020-06-26T06:23:56Z</time>
      </trkpt>
      <trkpt lat="44.88125" lon="-0.1347">
        <ele>51</ele>
        <time>2020-06-26T06:25:03Z</time>
      </trkpt>
      <trkpt lat="44.8814" lon="-0.13489">
        <ele>56</ele>
        <time>2020-06-26T06:25:30Z</time>
      </trkpt>
      <trkpt lat="44.88144" lon="-0.13548">
        <ele>59</ele>
        <time>2020-06-26T06:26:26Z</time>
      </trkpt>
      <trkpt lat="44.88164" lon="-0.1357">
        <ele>64</ele>
        <time>2020-06-26T06:27:00Z</time>
      </trkpt>
      <trkpt lat="44.88188" lon="-0.13588">
        <ele>68</ele>
        <time>2020-06-26T06:27:36Z</time>
      </trkpt>
      <trkpt lat="44.88205" lon="-0.13611">
        <ele>68</ele>
        <time>2020-06-26T06:28:07Z</time>
      </trkpt>
      <trkpt lat="44.88232" lon="-0.13625">
        <ele>72</ele>
        <time>2020-06-26T06:28:46Z</time>
      </trkpt>
      <trkpt lat="44.88251" lon="-0.1364">
        <ele>74</ele>
        <time>2020-06-26T06:29:15Z</time>
      </trkpt>
      <trkpt lat="44.88258" lon="-0.13703">
        <ele>71</ele>
        <time>2020-06-26T06:30:15Z</time>
      </trkpt>
      <trkpt lat="44.88257" lon="-0.13714">
        <ele>69</ele>
        <time>2020-06-26T06:30:26Z</time>
      </trkpt>
      <trkpt lat="44.88281" lon="-0.13713">
        <ele>75</ele>
        <time>2020-06-26T06:30:58Z</time>
      </trkpt>
      <trkpt lat="44.88303" lon="-0.13765">
        <ele>77</ele>
        <time>2020-06-26T06:31:55Z</time>
      </trkpt>
      <trkpt lat="44.88306" lon="-0.13787">
        <ele>78</ele>
        <time>2020-06-26T06:32:16Z</time>
      </trkpt>
      <trkpt lat="44.88306" lon="-0.13798">
        <ele>78</ele>
        <time>2020-06-26T06:32:27Z</time>
      </trkpt>
      <trkpt lat="44.88311" lon="-0.13852">
        <ele>80</ele>
        <time>2020-06-26T06:33:18Z</time>
      </trkpt>
      <trkpt lat="44.88324" lon="-0.13925">
        <ele>84</ele>
        <time>2020-06-26T06:34:29Z</time>
      </trkpt>
      <trkpt lat="44.88304" lon="-0.13927">
        <ele>81</ele>
        <time>2020-06-26T06:34:56Z</time>
      </trkpt>
      <trkpt lat="44.88292" lon="-0.13934">
        <ele>80</ele>
        <time>2020-06-26T06:35:13Z</time>
      </trkpt>
      <trkpt lat="44.88239" lon="-0.13996">
        <ele>78</ele>
        <time>2020-06-26T06:36:45Z</time>
      </trkpt>
      <trkpt lat="44.88221" lon="-0.14014">
        <ele>78</ele>
        <time>2020-06-26T06:37:15Z</time>
      </trkpt>
      <trkpt lat="44.88189" lon="-0.14058">
        <ele>79</ele>
        <time>2020-06-26T06:38:14Z</time>
      </trkpt>
      <trkpt lat="44.88189" lon="-0.14093">
        <ele>81</ele>
        <time>2020-06-26T06:38:47Z</time>
      </trkpt>
      <trkpt lat="44.88232" lon="-0.14118">
        <ele>87</ele>
        <time>2020-06-26T06:39:49Z</time>
      </trkpt>
      <trkpt lat="44.88246" lon="-0.14126">
        <ele>88</ele>
        <time>2020-06-26T06:40:10Z</time>
      </trkpt>
      <trkpt lat="44.8829" lon="-0.14121">
        <ele>90</ele>
        <time>2020-06-26T06:41:08Z</time>
      </trkpt>
      <trkpt lat="44.88422" lon="-0.14072">
        <ele>93</ele>
        <time>2020-06-26T06:44:11Z</time>
      </trkpt>
      <trkpt lat="44.88465" lon="-0.14065">
        <ele>93</ele>
        <time>2020-06-26T06:45:08Z</time>
      </trkpt>
      <trkpt lat="44.8847" lon="-0.14107">
        <ele>93</ele>
        <time>2020-06-26T06:45:49Z</time>
      </trkpt>
      <trkpt lat="44.8848" lon="-0.14236">
        <ele>92</ele>
        <time>2020-06-26T06:47:51Z</time>
      </trkpt>
      <trkpt lat="44.88486" lon="-0.14264">
        <ele>91</ele>
        <time>2020-06-26T06:48:19Z</time>
      </trkpt>
      <trkpt lat="44.88503" lon="-0.14284">
        <ele>91</ele>
        <time>2020-06-26T06:48:48Z</time>
      </trkpt>
      <trkpt lat="44.88549" lon="-0.14278">
        <ele>92</ele>
        <time>2020-06-26T06:49:50Z</time>
      </trkpt>
      <trkpt lat="44.88559" lon="-0.14281">
        <ele>92</ele>
        <time>2020-06-26T06:50:04Z</time>
      </trkpt>
      <trkpt lat="44.88614" lon="-0.14284">
        <ele>94</ele>
        <time>2020-06-26T06:51:17Z</time>
      </trkpt>
      <trkpt lat="44.88609" lon="-0.14341">
        <ele>94</ele>
        <time>2020-06-26T06:52:12Z</time>
      </trkpt>
      <trkpt lat="44.8861" lon="-0.14404">
        <ele>93</ele>
        <time>2020-06-26T06:53:11Z</time>
      </trkpt>
      <trkpt lat="44.88634" lon="-0.14458">
        <ele>93</ele>
        <time>2020-06-26T06:54:11Z</time>
      </trkpt>
      <trkpt lat="44.88641" lon="-0.1452">
        <ele>93</ele>
        <time>2020-06-26T06:55:11Z</time>
      </trkpt>
      <trkpt lat="44.88649" lon="-0.14582">
        <ele>93</ele>
        <time>2020-06-26T06:56:10Z</time>
      </trkpt>
      <trkpt lat="44.88661" lon="-0.14619">
        <ele>95</ele>
        <time>2020-06-26T06:56:49Z</time>
      </trkpt>
      <trkpt lat="44.88688" lon="-0.14655">
        <ele>97</ele>
        <time>2020-06-26T06:57:38Z</time>
      </trkpt>
      <trkpt lat="44.88696" lon="-0.14719">
        <ele>97</ele>
        <time>2020-06-26T06:58:40Z</time>
      </trkpt>
      <trkpt lat="44.88706" lon="-0.14781">
        <ele>97</ele>
        <time>2020-06-26T06:59:40Z</time>
      </trkpt>
      <trkpt lat="44.88722" lon="-0.14853">
        <ele>95</ele>
        <time>2020-06-26T07:00:51Z</time>
      </trkpt>
      <trkpt lat="44.88739" lon="-0.149">
        <ele>93</ele>
        <time>2020-06-26T07:01:41Z</time>
      </trkpt>
      <trkpt lat="44.88746" lon="-0.14924">
        <ele>92</ele>
        <time>2020-06-26T07:02:06Z</time>
      </trkpt>
      <trkpt lat="44.88754" lon="-0.14941">
        <ele>92</ele>
        <time>2020-06-26T07:02:25Z</time>
      </trkpt>
      <trkpt lat="44.88748" lon="-0.14959">
        <ele>91</ele>
        <time>2020-06-26T07:02:44Z</time>
      </trkpt>
      <trkpt lat="44.887" lon="-0.14977">
        <ele>86</ele>
        <time>2020-06-26T07:03:50Z</time>
      </trkpt>
      <trkpt lat="44.88709" lon="-0.14991">
        <ele>86</ele>
        <time>2020-06-26T07:04:08Z</time>
      </trkpt>
      <trkpt lat="44.88752" lon="-0.15014">
        <ele>87</ele>
        <time>2020-06-26T07:05:09Z</time>
      </trkpt>
      <trkpt lat="44.88791" lon="-0.15025">
        <ele>86</ele>
        <time>2020-06-26T07:06:02Z</time>
      </trkpt>
      <trkpt lat="44.88754" lon="-0.15047">
        <ele>84</ele>
        <time>2020-06-26T07:06:56Z</time>
      </trkpt>
      <trkpt lat="44.88744" lon="-0.1511">
        <ele>76</ele>
        <time>2020-06-26T07:07:57Z</time>
      </trkpt>
      <trkpt lat="44.88753" lon="-0.15117">
        <ele>76</ele>
        <time>2020-06-26T07:08:11Z</time>
      </trkpt>
      <trkpt lat="44.88797" lon="-0.15126">
        <ele>77</ele>
        <time>2020-06-26T07:09:10Z</time>
      </trkpt>
      <trkpt lat="44.88815" lon="-0.15146">
        <ele>76</ele>
        <time>2020-06-26T07:09:41Z</time>
      </trkpt>
      <trkpt lat="44.88815" lon="-0.15165">
        <ele>75</ele>
        <time>2020-06-26T07:09:59Z</time>
      </trkpt>
      <trkpt lat="44.88815" lon="-0.15186">
        <ele>71</ele>
        <time>2020-06-26T07:10:18Z</time>
      </trkpt>
      <trkpt lat="44.8886" lon="-0.15189">
        <ele>71</ele>
        <time>2020-06-26T07:11:19Z</time>
      </trkpt>
      <trkpt lat="44.88904" lon="-0.15182">
        <ele>71</ele>
        <time>2020-06-26T07:12:18Z</time>
      </trkpt>
      <trkpt lat="44.88949" lon="-0.15181">
        <ele>67</ele>
        <time>2020-06-26T07:13:18Z</time>
      </trkpt>
      <trkpt lat="44.88983" lon="-0.15142">
        <ele>67</ele>
        <time>2020-06-26T07:14:16Z</time>
      </trkpt>
      <trkpt lat="44.89006" lon="-0.15087">
        <ele>69</ele>
        <time>2020-06-26T07:15:17Z</time>
      </trkpt>
      <trkpt lat="44.89014" lon="-0.15068">
        <ele>68</ele>
        <time>2020-06-26T07:15:37Z</time>
      </trkpt>
      <trkpt lat="44.89021" lon="-0.15039">
        <ele>68</ele>
        <time>2020-06-26T07:16:06Z</time>
      </trkpt>
      <trkpt lat="44.89043" lon="-0.14983">
        <ele>68</ele>
        <time>2020-06-26T07:17:07Z</time>
      </trkpt>
      <trkpt lat="44.89055" lon="-0.14928">
        <ele>70</ele>
        <time>2020-06-26T07:18:01Z</time>
      </trkpt>
      <trkpt lat="44.8907" lon="-0.14889">
        <ele>71</ele>
        <time>2020-06-26T07:18:43Z</time>
      </trkpt>
      <trkpt lat="44.89064" lon="-0.14934">
        <ele>68</ele>
        <time>2020-06-26T07:19:27Z</time>
      </trkpt>
      <trkpt lat="44.89083" lon="-0.14893">
        <ele>70</ele>
        <time>2020-06-26T07:20:13Z</time>
      </trkpt>
      <trkpt lat="44.89102" lon="-0.14895">
        <ele>67</ele>
        <time>2020-06-26T07:20:38Z</time>
      </trkpt>
      <trkpt lat="44.89126" lon="-0.14907">
        <ele>64</ele>
        <time>2020-06-26T07:21:12Z</time>
      </trkpt>
      <trkpt lat="44.8914" lon="-0.14922">
        <ele>61</ele>
        <time>2020-06-26T07:21:36Z</time>
      </trkpt>
      <trkpt lat="44.89135" lon="-0.14948">
        <ele>61</ele>
        <time>2020-06-26T07:22:01Z</time>
      </trkpt>
      <trkpt lat="44.89138" lon="-0.14975">
        <ele>60</ele>
        <time>2020-06-26T07:22:27Z</time>
      </trkpt>
      <trkpt lat="44.89159" lon="-0.15005">
        <ele>58</ele>
        <time>2020-06-26T07:23:07Z</time>
      </trkpt>
      <trkpt lat="44.89134" lon="-0.15048">
        <ele>59</ele>
        <time>2020-06-26T07:24:00Z</time>
      </trkpt>
      <trkpt lat="44.89129" lon="-0.15079">
        <ele>58</ele>
        <time>2020-06-26T07:24:30Z</time>
      </trkpt>
      <trkpt lat="44.89122" lon="-0.15141">
        <ele>57</ele>
        <time>2020-06-26T07:25:29Z</time>
      </trkpt>
      <trkpt lat="44.89113" lon="-0.15188">
        <ele>56</ele>
        <time>2020-06-26T07:26:15Z</time>
      </trkpt>
      <trkpt lat="44.89098" lon="-0.15218">
        <ele>55</ele>
        <time>2020-06-26T07:26:50Z</time>
      </trkpt>
      <trkpt lat="44.89083" lon="-0.1525">
        <ele>53</ele>
        <time>2020-06-26T07:27:26Z</time>
      </trkpt>
      <trkpt lat="44.89076" lon="-0.15277">
        <ele>53</ele>
        <time>2020-06-26T07:27:53Z</time>
      </trkpt>
      <trkpt lat="44.89074" lon="-0.153">
        <ele>53</ele>
        <time>2020-06-26T07:28:15Z</time>
      </trkpt>
      <trkpt lat="44.89072" lon="-0.15325">
        <ele>52</ele>
        <time>2020-06-26T07:28:39Z</time>
      </trkpt>
      <trkpt lat="44.89072" lon="-0.15357">
        <ele>52</ele>
        <time>2020-06-26T07:29:09Z</time>
      </trkpt>
      <trkpt lat="44.8909" lon="-0.15415">
        <ele>54</ele>
        <time>2020-06-26T07:30:09Z</time>
      </trkpt>
      <trkpt lat="44.89098" lon="-0.15424">
        <ele>55</ele>
        <time>2020-06-26T07:30:23Z</time>
      </trkpt>
      <trkpt lat="44.89146" lon="-0.15371">
        <ele>62</ele>
        <time>2020-06-26T07:31:44Z</time>
      </trkpt>
      <trkpt lat="44.8918" lon="-0.15328">
        <ele>67</ele>
        <time>2020-06-26T07:32:45Z</time>
      </trkpt>
      <trkpt lat="44.89187" lon="-0.15324">
        <ele>69</ele>
        <time>2020-06-26T07:32:55Z</time>
      </trkpt>
      <trkpt lat="44.89232" lon="-0.15323">
        <ele>77</ele>
        <time>2020-06-26T07:33:55Z</time>
      </trkpt>
      <trkpt lat="44.89238" lon="-0.15326">
        <ele>78</ele>
        <time>2020-06-26T07:34:03Z</time>
      </trkpt>
      <trkpt lat="44.89257" lon="-0.15277">
        <ele>79</ele>
        <time>2020-06-26T07:34:56Z</time>
      </trkpt>
      <trkpt lat="44.89264" lon="-0.15211">
        <ele>78</ele>
        <time>2020-06-26T07:35:59Z</time>
      </trkpt>
      <trkpt lat="44.89315" lon="-0.15231">
        <ele>84</ele>
        <time>2020-06-26T07:37:10Z</time>
      </trkpt>
      <trkpt lat="44.89357" lon="-0.15251">
        <ele>85</ele>
        <time>2020-06-26T07:38:09Z</time>
      </trkpt>
      <trkpt lat="44.89374" lon="-0.15261">
        <ele>85</ele>
        <time>2020-06-26T07:38:34Z</time>
      </trkpt>
      <trkpt lat="44.89384" lon="-0.15261">
        <ele>85</ele>
        <time>2020-06-26T07:38:47Z</time>
      </trkpt>
      <trkpt lat="44.89421" lon="-0.15271">
        <ele>84</ele>
        <time>2020-06-26T07:39:37Z</time>
      </trkpt>
      <trkpt lat="44.89447" lon="-0.1528">
        <ele>83</ele>
        <time>2020-06-26T07:40:13Z</time>
      </trkpt>
      <trkpt lat="44.89493" lon="-0.15283">
        <ele>83</ele>
        <time>2020-06-26T07:41:15Z</time>
      </trkpt>
      <trkpt lat="44.89504" lon="-0.15282">
        <ele>83</ele>
        <time>2020-06-26T07:41:29Z</time>
      </trkpt>
      <trkpt lat="44.89546" lon="-0.15306">
        <ele>81</ele>
        <time>2020-06-26T07:42:30Z</time>
      </trkpt>
      <trkpt lat="44.89567" lon="-0.15311">
        <ele>80</ele>
        <time>2020-06-26T07:42:58Z</time>
      </trkpt>
      <trkpt lat="44.89586" lon="-0.15254">
        <ele>79</ele>
        <time>2020-06-26T07:43:58Z</time>
      </trkpt>
      <trkpt lat="44.89608" lon="-0.15202">
        <ele>79</ele>
        <time>2020-06-26T07:44:55Z</time>
      </trkpt>
      <trkpt lat="44.89634" lon="-0.15134">
        <ele>79</ele>
        <time>2020-06-26T07:46:08Z</time>
      </trkpt>
      <trkpt lat="44.89659" lon="-0.15089">
        <ele>79</ele>
        <time>2020-06-26T07:47:02Z</time>
      </trkpt>
      <trkpt lat="44.89727" lon="-0.15062">
        <ele>76</ele>
        <time>2020-06-26T07:48:36Z</time>
      </trkpt>
      <trkpt lat="44.89756" lon="-0.15049">
        <ele>75</ele>
        <time>2020-06-26T07:49:17Z</time>
      </trkpt>
      <trkpt lat="44.89777" lon="-0.15037">
        <ele>75</ele>
        <time>2020-06-26T07:49:47Z</time>
      </trkpt>
      <trkpt lat="44.89787" lon="-0.15036">
        <ele>75</ele>
        <time>2020-06-26T07:50:01Z</time>
      </trkpt>
      <trkpt lat="44.89796" lon="-0.15029">
        <ele>75</ele>
        <time>2020-06-26T07:50:14Z</time>
      </trkpt>
      <trkpt lat="44.8983" lon="-0.15015">
        <ele>74</ele>
        <time>2020-06-26T07:51:02Z</time>
      </trkpt>
      <trkpt lat="44.89852" lon="-0.15006">
        <ele>73</ele>
        <time>2020-06-26T07:51:32Z</time>
      </trkpt>
      <trkpt lat="44.89896" lon="-0.14987">
        <ele>73</ele>
        <time>2020-06-26T07:52:33Z</time>
      </trkpt>
      <trkpt lat="44.89897" lon="-0.14986">
        <ele>73</ele>
        <time>2020-06-26T07:52:35Z</time>
      </trkpt>
      <trkpt lat="44.89941" lon="-0.14968">
        <ele>73</ele>
        <time>2020-06-26T07:53:36Z</time>
      </trkpt>
      <trkpt lat="44.89984" lon="-0.14949">
        <ele>73</ele>
        <time>2020-06-26T07:54:36Z</time>
      </trkpt>
      <trkpt lat="44.90024" lon="-0.14931">
        <ele>73</ele>
        <time>2020-06-26T07:55:32Z</time>
      </trkpt>
      <trkpt lat="44.90041" lon="-0.14922">
        <ele>73</ele>
        <time>2020-06-26T07:55:57Z</time>
      </trkpt>
      <trkpt lat="44.90085" lon="-0.14903">
        <ele>74</ele>
        <time>2020-06-26T07:56:58Z</time>
      </trkpt>
      <trkpt lat="44.90111" lon="-0.14893">
        <ele>75</ele>
        <time>2020-06-26T07:57:34Z</time>
      </trkpt>
      <trkpt lat="44.90088" lon="-0.14894">
        <ele>74</ele>
        <time>2020-06-26T07:58:05Z</time>
      </trkpt>
      <trkpt lat="44.90092" lon="-0.14882">
        <ele>75</ele>
        <time>2020-06-26T07:58:17Z</time>
      </trkpt>
      <trkpt lat="44.90107" lon="-0.14837">
        <ele>76</ele>
        <time>2020-06-26T07:59:04Z</time>
      </trkpt>
      <trkpt lat="44.90129" lon="-0.14818">
        <ele>76</ele>
        <time>2020-06-26T07:59:39Z</time>
      </trkpt>
      <trkpt lat="44.90144" lon="-0.14803">
        <ele>76</ele>
        <time>2020-06-26T08:00:03Z</time>
      </trkpt>
      <trkpt lat="44.90141" lon="-0.14794">
        <ele>76</ele>
        <time>2020-06-26T08:00:13Z</time>
      </trkpt>
      <trkpt lat="44.9011" lon="-0.14675">
        <ele>74</ele>
        <time>2020-06-26T08:02:12Z</time>
      </trkpt>
      <trkpt lat="44.90092" lon="-0.14615">
        <ele>75</ele>
        <time>2020-06-26T08:03:14Z</time>
      </trkpt>
      <trkpt lat="44.90073" lon="-0.14557">
        <ele>76</ele>
        <time>2020-06-26T08:04:14Z</time>
      </trkpt>
      <trkpt lat="44.90067" lon="-0.14549">
        <ele>76</ele>
        <time>2020-06-26T08:04:25Z</time>
      </trkpt>
      <trkpt lat="44.90064" lon="-0.14547">
        <ele>76</ele>
        <time>2020-06-26T08:04:30Z</time>
      </trkpt>
      <trkpt lat="44.90047" lon="-0.145">
        <ele>77</ele>
        <time>2020-06-26T08:05:20Z</time>
      </trkpt>
      <trkpt lat="44.90044" lon="-0.14499">
        <ele>77</ele>
        <time>2020-06-26T08:05:24Z</time>
      </trkpt>
      <trkpt lat="44.90038" lon="-0.14489">
        <ele>77</ele>
        <time>2020-06-26T08:05:36Z</time>
      </trkpt>
      <trkpt lat="44.90063" lon="-0.14448">
        <ele>76</ele>
        <time>2020-06-26T08:06:27Z</time>
      </trkpt>
      <trkpt lat="44.90095" lon="-0.14379">
        <ele>73</ele>
        <time>2020-06-26T08:07:45Z</time>
      </trkpt>
      <trkpt lat="44.90104" lon="-0.14337">
        <ele>71</ele>
        <time>2020-06-26T08:08:27Z</time>
      </trkpt>
      <trkpt lat="44.90081" lon="-0.14325">
        <ele>72</ele>
        <time>2020-06-26T08:09:00Z</time>
      </trkpt>
      <trkpt lat="44.90035" lon="-0.14329">
        <ele>74</ele>
        <time>2020-06-26T08:10:01Z</time>
      </trkpt>
      <trkpt lat="44.90035" lon="-0.14333">
        <ele>74</ele>
        <time>2020-06-26T08:10:05Z</time>
      </trkpt>
      <trkpt lat="44.90027" lon="-0.1433">
        <ele>75</ele>
        <time>2020-06-26T08:10:16Z</time>
      </trkpt>
      <trkpt lat="44.90013" lon="-0.14305">
        <ele>74</ele>
        <time>2020-06-26T08:10:46Z</time>
      </trkpt>
      <trkpt lat="44.9003" lon="-0.14263">
        <ele>71</ele>
        <time>2020-06-26T08:11:32Z</time>
      </trkpt>
      <trkpt lat="44.90022" lon="-0.1421">
        <ele>68</ele>
        <time>2020-06-26T08:12:23Z</time>
      </trkpt>
      <trkpt lat="44.90012" lon="-0.14165">
        <ele>67</ele>
        <time>2020-06-26T08:13:08Z</time>
      </trkpt>
      <trkpt lat="44.90004" lon="-0.14135">
        <ele>66</ele>
        <time>2020-06-26T08:13:38Z</time>
      </trkpt>
      <trkpt lat="44.89961" lon="-0.14138">
        <ele>68</ele>
        <time>2020-06-26T08:14:35Z</time>
      </trkpt>
      <trkpt lat="44.89917" lon="-0.14153">
        <ele>69</ele>
        <time>2020-06-26T08:15:36Z</time>
      </trkpt>
      <trkpt lat="44.89832" lon="-0.14193">
        <ele>79</ele>
        <time>2020-06-26T08:17:35Z</time>
      </trkpt>
      <trkpt lat="44.89817" lon="-0.14192">
        <ele>82</ele>
        <time>2020-06-26T08:17:55Z</time>
      </trkpt>
      <trkpt lat="44.89839" lon="-0.14135">
        <ele>79</ele>
        <time>2020-06-26T08:18:57Z</time>
      </trkpt>
      <trkpt lat="44.89848" lon="-0.1407">
        <ele>79</ele>
        <time>2020-06-26T08:19:59Z</time>
      </trkpt>
      <trkpt lat="44.89848" lon="-0.14063">
        <ele>78</ele>
        <time>2020-06-26T08:20:06Z</time>
      </trkpt>
      <trkpt lat="44.89846" lon="-0.14059">
        <ele>78</ele>
        <time>2020-06-26T08:20:10Z</time>
      </trkpt>
      <trkpt lat="44.89845" lon="-0.14037">
        <ele>78</ele>
        <time>2020-06-26T08:20:31Z</time>
      </trkpt>
      <trkpt lat="44.8984" lon="-0.14019">
        <ele>78</ele>
        <time>2020-06-26T08:20:50Z</time>
      </trkpt>
      <trkpt lat="44.8982" lon="-0.13962">
        <ele>80</ele>
        <time>2020-06-26T08:21:50Z</time>
      </trkpt>
      <trkpt lat="44.89797" lon="-0.13905">
        <ele>82</ele>
        <time>2020-06-26T08:22:52Z</time>
      </trkpt>
      <trkpt lat="44.89779" lon="-0.13872">
        <ele>83</ele>
        <time>2020-06-26T08:23:31Z</time>
      </trkpt>
      <trkpt lat="44.89762" lon="-0.1391">
        <ele>86</ele>
        <time>2020-06-26T08:24:14Z</time>
      </trkpt>
      <trkpt lat="44.89743" lon="-0.13931">
        <ele>89</ele>
        <time>2020-06-26T08:24:46Z</time>
      </trkpt>
      <trkpt lat="44.89717" lon="-0.13905">
        <ele>87</ele>
        <time>2020-06-26T08:25:28Z</time>
      </trkpt>
      <trkpt lat="44.89693" lon="-0.13849">
        <ele>86</ele>
        <time>2020-06-26T08:26:30Z</time>
      </trkpt>
      <trkpt lat="44.89672" lon="-0.13792">
        <ele>84</ele>
        <time>2020-06-26T08:27:31Z</time>
      </trkpt>
      <trkpt lat="44.8966" lon="-0.1373">
        <ele>80</ele>
        <time>2020-06-26T08:28:32Z</time>
      </trkpt>
      <trkpt lat="44.89653" lon="-0.1369">
        <ele>79</ele>
        <time>2020-06-26T08:29:11Z</time>
      </trkpt>
      <trkpt lat="44.89677" lon="-0.13635">
        <ele>77</ele>
        <time>2020-06-26T08:30:12Z</time>
      </trkpt>
      <trkpt lat="44.89688" lon="-0.13574">
        <ele>75</ele>
        <time>2020-06-26T08:31:11Z</time>
      </trkpt>
      <trkpt lat="44.89717" lon="-0.13523">
        <ele>74</ele>
        <time>2020-06-26T08:32:13Z</time>
      </trkpt>
      <trkpt lat="44.89754" lon="-0.13486">
        <ele>73</ele>
        <time>2020-06-26T08:33:14Z</time>
      </trkpt>
      <trkpt lat="44.89787" lon="-0.13441">
        <ele>71</ele>
        <time>2020-06-26T08:34:15Z</time>
      </trkpt>
      <trkpt lat="44.89811" lon="-0.13386">
        <ele>68</ele>
        <time>2020-06-26T08:35:16Z</time>
      </trkpt>
      <trkpt lat="44.89841" lon="-0.13337">
        <ele>64</ele>
        <time>2020-06-26T08:36:17Z</time>
      </trkpt>
      <trkpt lat="44.89874" lon="-0.13291">
        <ele>61</ele>
        <time>2020-06-26T08:37:19Z</time>
      </trkpt>
      <trkpt lat="44.89908" lon="-0.13246">
        <ele>59</ele>
        <time>2020-06-26T08:38:21Z</time>
      </trkpt>
      <trkpt lat="44.89944" lon="-0.13204">
        <ele>59</ele>
        <time>2020-06-26T08:39:23Z</time>
      </trkpt>
      <trkpt lat="44.8998" lon="-0.13165">
        <ele>59</ele>
        <time>2020-06-26T08:40:24Z</time>
      </trkpt>
      <trkpt lat="44.90018" lon="-0.13127">
        <ele>60</ele>
        <time>2020-06-26T08:41:26Z</time>
      </trkpt>
      <trkpt lat="44.9001" lon="-0.13069">
        <ele>60</ele>
        <time>2020-06-26T08:42:22Z</time>
      </trkpt>
      <trkpt lat="44.89995" lon="-0.13009">
        <ele>60</ele>
        <time>2020-06-26T08:43:22Z</time>
      </trkpt>
      <trkpt lat="44.89996" lon="-0.13008">
        <ele>60</ele>
        <time>2020-06-26T08:43:24Z</time>
      </trkpt>
      <trkpt lat="44.89997" lon="-0.13002">
        <ele>60</ele>
        <time>2020-06-26T08:43:30Z</time>
      </trkpt>
      <trkpt lat="44.89985" lon="-0.12961">
        <ele>59</ele>
        <time>2020-06-26T08:44:12Z</time>
      </trkpt>
      <trkpt lat="44.89984" lon="-0.12956">
        <ele>59</ele>
        <time>2020-06-26T08:44:16Z</time>
      </trkpt>
      <trkpt lat="44.9001" lon="-0.12904">
        <ele>58</ele>
        <time>2020-06-26T08:45:17Z</time>
      </trkpt>
      <trkpt lat="44.90037" lon="-0.12852">
        <ele>60</ele>
        <time>2020-06-26T08:46:18Z</time>
      </trkpt>
      <trkpt lat="44.90063" lon="-0.12799">
        <ele>62</ele>
        <time>2020-06-26T08:47:19Z</time>
      </trkpt>
      <trkpt lat="44.9009" lon="-0.12747">
        <ele>65</ele>
        <time>2020-06-26T08:48:19Z</time>
      </trkpt>
      <trkpt lat="44.90117" lon="-0.12695">
        <ele>68</ele>
        <time>2020-06-26T08:49:20Z</time>
      </trkpt>
      <trkpt lat="44.90137" lon="-0.12636">
        <ele>70</ele>
        <time>2020-06-26T08:50:22Z</time>
      </trkpt>
      <trkpt lat="44.90163" lon="-0.12591">
        <ele>71</ele>
        <time>2020-06-26T08:51:17Z</time>
      </trkpt>
      <trkpt lat="44.90158" lon="-0.12573">
        <ele>72</ele>
        <time>2020-06-26T08:51:35Z</time>
      </trkpt>
      <trkpt lat="44.90161" lon="-0.1256">
        <ele>72</ele>
        <time>2020-06-26T08:51:48Z</time>
      </trkpt>
      <trkpt lat="44.90169" lon="-0.12449">
        <ele>70</ele>
        <time>2020-06-26T08:53:34Z</time>
      </trkpt>
      <trkpt lat="44.90177" lon="-0.12444">
        <ele>69</ele>
        <time>2020-06-26T08:53:45Z</time>
      </trkpt>
      <trkpt lat="44.90161" lon="-0.12385">
        <ele>69</ele>
        <time>2020-06-26T08:54:45Z</time>
      </trkpt>
      <trkpt lat="44.90134" lon="-0.12334">
        <ele>70</ele>
        <time>2020-06-26T08:55:45Z</time>
      </trkpt>
      <trkpt lat="44.90098" lon="-0.12295">
        <ele>73</ele>
        <time>2020-06-26T08:56:46Z</time>
      </trkpt>
      <trkpt lat="44.90078" lon="-0.12263">
        <ele>73</ele>
        <time>2020-06-26T08:57:26Z</time>
      </trkpt>
      <trkpt lat="44.90046" lon="-0.12307">
        <ele>75</ele>
        <time>2020-06-26T08:58:26Z</time>
      </trkpt>
      <trkpt lat="44.90018" lon="-0.1234">
        <ele>77</ele>
        <time>2020-06-26T08:59:15Z</time>
      </trkpt>
      <trkpt lat="44.90011" lon="-0.12343">
        <ele>77</ele>
        <time>2020-06-26T08:59:24Z</time>
      </trkpt>
      <trkpt lat="44.89966" lon="-0.12352">
        <ele>76</ele>
        <time>2020-06-26T09:00:25Z</time>
      </trkpt>
      <trkpt lat="44.8992" lon="-0.12359">
        <ele>75</ele>
        <time>2020-06-26T09:01:27Z</time>
      </trkpt>
      <trkpt lat="44.89875" lon="-0.1236">
        <ele>75</ele>
        <time>2020-06-26T09:02:27Z</time>
      </trkpt>
      <trkpt lat="44.8983" lon="-0.12354">
        <ele>75</ele>
        <time>2020-06-26T09:03:27Z</time>
      </trkpt>
      <trkpt lat="44.89806" lon="-0.12349">
        <ele>77</ele>
        <time>2020-06-26T09:03:59Z</time>
      </trkpt>
      <trkpt lat="44.89795" lon="-0.12351">
        <ele>77</ele>
        <time>2020-06-26T09:04:14Z</time>
      </trkpt>
      <trkpt lat="44.89751" lon="-0.12339">
        <ele>81</ele>
        <time>2020-06-26T09:05:14Z</time>
      </trkpt>
      <trkpt lat="44.89719" lon="-0.12301">
        <ele>83</ele>
        <time>2020-06-26T09:06:10Z</time>
      </trkpt>
      <trkpt lat="44.89712" lon="-0.12291">
        <ele>83</ele>
        <time>2020-06-26T09:06:23Z</time>
      </trkpt>
      <trkpt lat="44.89669" lon="-0.12267">
        <ele>85</ele>
        <time>2020-06-26T09:07:25Z</time>
      </trkpt>
      <trkpt lat="44.89625" lon="-0.12267">
        <ele>85</ele>
        <time>2020-06-26T09:08:24Z</time>
      </trkpt>
      <trkpt lat="44.89621" lon="-0.12255">
        <ele>84</ele>
        <time>2020-06-26T09:08:36Z</time>
      </trkpt>
      <trkpt lat="44.89617" lon="-0.1219">
        <ele>84</ele>
        <time>2020-06-26T09:09:38Z</time>
      </trkpt>
      <trkpt lat="44.89614" lon="-0.12127">
        <ele>82</ele>
        <time>2020-06-26T09:10:37Z</time>
      </trkpt>
      <trkpt lat="44.89605" lon="-0.12065">
        <ele>80</ele>
        <time>2020-06-26T09:11:37Z</time>
      </trkpt>
      <trkpt lat="44.89585" lon="-0.12008">
        <ele>80</ele>
        <time>2020-06-26T09:12:37Z</time>
      </trkpt>
      <trkpt lat="44.89579" lon="-0.11943">
        <ele>78</ele>
        <time>2020-06-26T09:13:39Z</time>
      </trkpt>
      <trkpt lat="44.89576" lon="-0.11879">
        <ele>77</ele>
        <time>2020-06-26T09:14:40Z</time>
      </trkpt>
      <trkpt lat="44.89581" lon="-0.11816">
        <ele>77</ele>
        <time>2020-06-26T09:15:40Z</time>
      </trkpt>
      <trkpt lat="44.89588" lon="-0.11751">
        <ele>76</ele>
        <time>2020-06-26T09:16:42Z</time>
      </trkpt>
      <trkpt lat="44.89583" lon="-0.11688">
        <ele>74</ele>
        <time>2020-06-26T09:17:42Z</time>
      </trkpt>
      <trkpt lat="44.89571" lon="-0.11627">
        <ele>73</ele>
        <time>2020-06-26T09:18:42Z</time>
      </trkpt>
      <trkpt lat="44.89556" lon="-0.11567">
        <ele>73</ele>
        <time>2020-06-26T09:19:42Z</time>
      </trkpt>
      <trkpt lat="44.89541" lon="-0.1153">
        <ele>74</ele>
        <time>2020-06-26T09:20:22Z</time>
      </trkpt>
      <trkpt lat="44.89497" lon="-0.11543">
        <ele>78</ele>
        <time>2020-06-26T09:21:22Z</time>
      </trkpt>
      <trkpt lat="44.89453" lon="-0.11558">
        <ele>82</ele>
        <time>2020-06-26T09:22:23Z</time>
      </trkpt>
      <trkpt lat="44.89411" lon="-0.11582">
        <ele>86</ele>
        <time>2020-06-26T09:23:23Z</time>
      </trkpt>
      <trkpt lat="44.8937" lon="-0.11613">
        <ele>88</ele>
        <time>2020-06-26T09:24:25Z</time>
      </trkpt>
      <trkpt lat="44.89348" lon="-0.11607">
        <ele>89</ele>
        <time>2020-06-26T09:24:55Z</time>
      </trkpt>
      <trkpt lat="44.89311" lon="-0.11643">
        <ele>91</ele>
        <time>2020-06-26T09:25:55Z</time>
      </trkpt>
      <trkpt lat="44.89273" lon="-0.1168">
        <ele>92</ele>
        <time>2020-06-26T09:26:57Z</time>
      </trkpt>
      <trkpt lat="44.89238" lon="-0.11719">
        <ele>93</ele>
        <time>2020-06-26T09:27:56Z</time>
      </trkpt>
      <trkpt lat="44.89202" lon="-0.11758">
        <ele>92</ele>
        <time>2020-06-26T09:28:57Z</time>
      </trkpt>
      <trkpt lat="44.89195" lon="-0.11768">
        <ele>92</ele>
        <time>2020-06-26T09:29:10Z</time>
      </trkpt>
      <trkpt lat="44.89161" lon="-0.11808">
        <ele>92</ele>
        <time>2020-06-26T09:30:09Z</time>
      </trkpt>
      <trkpt lat="44.89159" lon="-0.1181">
        <ele>91</ele>
        <time>2020-06-26T09:30:12Z</time>
      </trkpt>
      <trkpt lat="44.89145" lon="-0.11847">
        <ele>91</ele>
        <time>2020-06-26T09:30:52Z</time>
      </trkpt>
      <trkpt lat="44.89166" lon="-0.11894">
        <ele>90</ele>
        <time>2020-06-26T09:31:45Z</time>
      </trkpt>
      <trkpt lat="44.89174" lon="-0.11959">
        <ele>89</ele>
        <time>2020-06-26T09:32:47Z</time>
      </trkpt>
      <trkpt lat="44.89177" lon="-0.12042">
        <ele>90</ele>
        <time>2020-06-26T09:34:06Z</time>
      </trkpt>
      <trkpt lat="44.89185" lon="-0.12105">
        <ele>91</ele>
        <time>2020-06-26T09:35:06Z</time>
      </trkpt>
      <trkpt lat="44.89183" lon="-0.1217">
        <ele>91</ele>
        <time>2020-06-26T09:36:08Z</time>
      </trkpt>
      <trkpt lat="44.89183" lon="-0.12235">
        <ele>91</ele>
        <time>2020-06-26T09:37:09Z</time>
      </trkpt>
      <trkpt lat="44.8919" lon="-0.123">
        <ele>91</ele>
        <time>2020-06-26T09:38:11Z</time>
      </trkpt>
      <trkpt lat="44.89188" lon="-0.12364">
        <ele>92</ele>
        <time>2020-06-26T09:39:12Z</time>
      </trkpt>
      <trkpt lat="44.8919" lon="-0.12429">
        <ele>92</ele>
        <time>2020-06-26T09:40:13Z</time>
      </trkpt>
      <trkpt lat="44.89181" lon="-0.12462">
        <ele>93</ele>
        <time>2020-06-26T09:40:47Z</time>
      </trkpt>
      <trkpt lat="44.89135" lon="-0.12474">
        <ele>94</ele>
        <time>2020-06-26T09:41:49Z</time>
      </trkpt>
      <trkpt lat="44.89097" lon="-0.12496">
        <ele>95</ele>
        <time>2020-06-26T09:42:44Z</time>
      </trkpt>
      <trkpt lat="44.89054" lon="-0.12516">
        <ele>95</ele>
        <time>2020-06-26T09:43:44Z</time>
      </trkpt>
      <trkpt lat="44.89063" lon="-0.12577">
        <ele>96</ele>
        <time>2020-06-26T09:44:43Z</time>
      </trkpt>
      <trkpt lat="44.89068" lon="-0.12599">
        <ele>96</ele>
        <time>2020-06-26T09:45:05Z</time>
      </trkpt>
      <trkpt lat="44.89029" lon="-0.12629">
        <ele>95</ele>
        <time>2020-06-26T09:46:04Z</time>
      </trkpt>
      <trkpt lat="44.89024" lon="-0.12632">
        <ele>95</ele>
        <time>2020-06-26T09:46:12Z</time>
      </trkpt>
      <trkpt lat="44.89025" lon="-0.12654">
        <ele>95</ele>
        <time>2020-06-26T09:46:32Z</time>
      </trkpt>
      <trkpt lat="44.89" lon="-0.12703">
        <ele>95</ele>
        <time>2020-06-26T09:47:29Z</time>
      </trkpt>
      <trkpt lat="44.88962" lon="-0.12716">
        <ele>93</ele>
        <time>2020-06-26T09:48:22Z</time>
      </trkpt>
      <trkpt lat="44.88973" lon="-0.1278">
        <ele>92</ele>
        <time>2020-06-26T09:49:24Z</time>
      </trkpt>
      <trkpt lat="44.88974" lon="-0.12788">
        <ele>92</ele>
        <time>2020-06-26T09:49:32Z</time>
      </trkpt>
      <trkpt lat="44.88978" lon="-0.12839">
        <ele>92</ele>
        <time>2020-06-26T09:50:20Z</time>
      </trkpt>
      <trkpt lat="44.88934" lon="-0.1285">
        <ele>90</ele>
        <time>2020-06-26T09:51:20Z</time>
      </trkpt>
      <trkpt lat="44.88889" lon="-0.1286">
        <ele>86</ele>
        <time>2020-06-26T09:52:21Z</time>
      </trkpt>
      <trkpt lat="44.88869" lon="-0.12862">
        <ele>84</ele>
        <time>2020-06-26T09:52:47Z</time>
      </trkpt>
      <trkpt lat="44.88862" lon="-0.12856">
        <ele>83</ele>
        <time>2020-06-26T09:52:58Z</time>
      </trkpt>
      <trkpt lat="44.88837" lon="-0.12801">
        <ele>79</ele>
        <time>2020-06-26T09:54:00Z</time>
      </trkpt>
      <trkpt lat="44.88828" lon="-0.12795">
        <ele>78</ele>
        <time>2020-06-26T09:54:13Z</time>
      </trkpt>
      <trkpt lat="44.888" lon="-0.1277">
        <ele>73</ele>
        <time>2020-06-26T09:54:58Z</time>
      </trkpt>
      <trkpt lat="44.88795" lon="-0.1278">
        <ele>72</ele>
        <time>2020-06-26T09:55:09Z</time>
      </trkpt>
      <trkpt lat="44.88792" lon="-0.12776">
        <ele>72</ele>
        <time>2020-06-26T09:55:15Z</time>
      </trkpt>
      <trkpt lat="44.88747" lon="-0.12782">
        <ele>65</ele>
        <time>2020-06-26T09:56:15Z</time>
      </trkpt>
      <trkpt lat="44.88724" lon="-0.12783">
        <ele>63</ele>
        <time>2020-06-26T09:56:46Z</time>
      </trkpt>
      <trkpt lat="44.88678" lon="-0.12778">
        <ele>58</ele>
        <time>2020-06-26T09:57:47Z</time>
      </trkpt>
      <trkpt lat="44.88659" lon="-0.12752">
        <ele>52</ele>
        <time>2020-06-26T09:58:23Z</time>
      </trkpt>
      <trkpt lat="44.88657" lon="-0.12752">
        <ele>52</ele>
        <time>2020-06-26T09:58:25Z</time>
      </trkpt>
      <trkpt lat="44.88655" lon="-0.12751">
        <ele>52</ele>
        <time>2020-06-26T09:58:28Z</time>
      </trkpt>
      <trkpt lat="44.88653" lon="-0.1274">
        <ele>51</ele>
        <time>2020-06-26T09:58:39Z</time>
      </trkpt>
      <trkpt lat="44.88632" lon="-0.12689">
        <ele>45</ele>
        <time>2020-06-26T09:59:35Z</time>
      </trkpt>
      <trkpt lat="44.88589" lon="-0.12695">
        <ele>41</ele>
        <time>2020-06-26T10:00:32Z</time>
      </trkpt>
      <trkpt lat="44.88546" lon="-0.12706">
        <ele>38</ele>
        <time>2020-06-26T10:01:30Z</time>
      </trkpt>
      <trkpt lat="44.88512" lon="-0.12665">
        <ele>36</ele>
        <time>2020-06-26T10:02:30Z</time>
      </trkpt>
      <trkpt lat="44.88482" lon="-0.12617">
        <ele>38</ele>
        <time>2020-06-26T10:03:31Z</time>
      </trkpt>
      <trkpt lat="44.88461" lon="-0.12583">
        <ele>39</ele>
        <time>2020-06-26T10:04:13Z</time>
      </trkpt>
      <trkpt lat="44.88423" lon="-0.12619">
        <ele>39</ele>
        <time>2020-06-26T10:05:14Z</time>
      </trkpt>
      <trkpt lat="44.88383" lon="-0.12649">
        <ele>38</ele>
        <time>2020-06-26T10:06:15Z</time>
      </trkpt>
      <trkpt lat="44.88338" lon="-0.12666">
        <ele>37</ele>
        <time>2020-06-26T10:07:17Z</time>
      </trkpt>
      <trkpt lat="44.88295" lon="-0.12691">
        <ele>36</ele>
        <time>2020-06-26T10:08:19Z</time>
      </trkpt>
      <trkpt lat="44.88254" lon="-0.12718">
        <ele>34</ele>
        <time>2020-06-26T10:09:19Z</time>
      </trkpt>
      <trkpt lat="44.88215" lon="-0.12751">
        <ele>32</ele>
        <time>2020-06-26T10:10:20Z</time>
      </trkpt>
      <trkpt lat="44.88182" lon="-0.12795">
        <ele>32</ele>
        <time>2020-06-26T10:11:21Z</time>
      </trkpt>
      <trkpt lat="44.88145" lon="-0.12835">
        <ele>32</ele>
        <time>2020-06-26T10:12:23Z</time>
      </trkpt>
      <trkpt lat="44.88102" lon="-0.12846">
        <ele>31</ele>
        <time>2020-06-26T10:13:21Z</time>
      </trkpt>
      <trkpt lat="44.88057" lon="-0.12849">
        <ele>31</ele>
        <time>2020-06-26T10:14:21Z</time>
      </trkpt>
      <trkpt lat="44.88014" lon="-0.12872">
        <ele>31</ele>
        <time>2020-06-26T10:15:23Z</time>
      </trkpt>
      <trkpt lat="44.87981" lon="-0.129">
        <ele>30</ele>
        <time>2020-06-26T10:16:14Z</time>
      </trkpt>
      <trkpt lat="44.87941" lon="-0.12929">
        <ele>28</ele>
        <time>2020-06-26T10:17:14Z</time>
      </trkpt>
      <trkpt lat="44.879" lon="-0.12967">
        <ele>28</ele>
        <time>2020-06-26T10:18:20Z</time>
      </trkpt>
      <trkpt lat="44.87837" lon="-0.13022">
        <ele>27</ele>
        <time>2020-06-26T10:19:58Z</time>
      </trkpt>
      <trkpt lat="44.87792" lon="-0.13057">
        <ele>26</ele>
        <time>2020-06-26T10:21:07Z</time>
      </trkpt>
      <trkpt lat="44.8778" lon="-0.13067">
        <ele>25</ele>
        <time>2020-06-26T10:21:26Z</time>
      </trkpt>
      <trkpt lat="44.87765" lon="-0.13078">
        <ele>25</ele>
        <time>2020-06-26T10:21:48Z</time>
      </trkpt>
      <trkpt lat="44.87749" lon="-0.13089">
        <ele>24</ele>
        <time>2020-06-26T10:22:12Z</time>
      </trkpt>
      <trkpt lat="44.87738" lon="-0.13092">
        <ele>24</ele>
        <time>2020-06-26T10:22:27Z</time>
      </trkpt>
      <trkpt lat="44.87726" lon="-0.13101">
        <ele>24</ele>
        <time>2020-06-26T10:22:45Z</time>
      </trkpt>
      <trkpt lat="44.87713" lon="-0.13108">
        <ele>23</ele>
        <time>2020-06-26T10:23:04Z</time>
      </trkpt>
      <trkpt lat="44.877" lon="-0.13116">
        <ele>23</ele>
        <time>2020-06-26T10:23:22Z</time>
      </trkpt>
      <trkpt lat="44.87688" lon="-0.13123">
        <ele>23</ele>
        <time>2020-06-26T10:23:40Z</time>
      </trkpt>
      <trkpt lat="44.87675" lon="-0.13132">
        <ele>23</ele>
        <time>2020-06-26T10:23:59Z</time>
      </trkpt>
      <trkpt lat="44.87657" lon="-0.13151">
        <ele>23</ele>
        <time>2020-06-26T10:24:29Z</time>
      </trkpt>
      <trkpt lat="44.87644" lon="-0.13165">
        <ele>23</ele>
        <time>2020-06-26T10:24:51Z</time>
      </trkpt>
      <trkpt lat="44.87612" lon="-0.13193">
        <ele>23</ele>
        <time>2020-06-26T10:25:41Z</time>
      </trkpt>
      <trkpt lat="44.876" lon="-0.13202">
        <ele>23</ele>
        <time>2020-06-26T10:25:59Z</time>
      </trkpt>
      <trkpt lat="44.87584" lon="-0.13221">
        <ele>23</ele>
        <time>2020-06-26T10:26:27Z</time>
      </trkpt>
      <trkpt lat="44.87542" lon="-0.13246">
        <ele>22</ele>
        <time>2020-06-26T10:27:28Z</time>
      </trkpt>
      <trkpt lat="44.87539" lon="-0.13265">
        <ele>22</ele>
        <time>2020-06-26T10:27:46Z</time>
      </trkpt>
      <trkpt lat="44.8755" lon="-0.13338">
        <ele>22</ele>
        <time>2020-06-26T10:28:57Z</time>
      </trkpt>
      <trkpt lat="44.87558" lon="-0.13396">
        <ele>22</ele>
        <time>2020-06-26T10:29:53Z</time>
      </trkpt>
    </trkseg>
  </trk>
</gpx>